sensor_id;sensor_type;location;lat;lon;timestamp;pressure;altitude;pressure_sealevel;temperature;humidity
70302;BME280;57706;56.326;43.882;2023-11-19T00:00:51;101643.91;;;-7.51;100.00
70302;BME280;57706;56.326;43.882;2023-11-19T00:03:17;101649.91;;;-7.57;100.00
70302;BME280;57706;56.326;43.882;2023-11-19T00:05:43;101646.66;;;-7.75;100.00
70302;BME280;57706;56.326;43.882;2023-11-19T00:08:10;101644.91;;;-7.69;100.00
70302;BME280;57706;56.326;43.882;2023-11-19T00:10:35;101646.63;;;-7.71;100.00
70302;BME280;57706;56.326;43.882;2023-11-19T00:13:01;101645.84;;;-7.81;100.00
70302;BME280;57706;56.326;43.882;2023-11-19T00:15:28;101657.09;;;-8.03;100.00
70302;BME280;57706;56.326;43.882;2023-11-19T00:17:54;101658.88;;;-8.14;100.00
70302;BME280;57706;56.326;43.882;2023-11-19T00:20:20;101658.69;;;-7.89;100.00
70302;BME280;57706;56.326;43.882;2023-11-19T00:22:49;101658.81;;;-8.05;100.00
70302;BME280;57706;56.326;43.882;2023-11-19T00:25:18;101650.13;;;-7.82;100.00
70302;BME280;57706;56.326;43.882;2023-11-19T00:27:44;101656.16;;;-7.88;100.00
70302;BME280;57706;56.326;43.882;2023-11-19T00:30:10;101659.69;;;-8.07;100.00
70302;BME280;57706;56.326;43.882;2023-11-19T00:32:36;101657.25;;;-8.24;100.00
70302;BME280;57706;56.326;43.882;2023-11-19T00:35:05;101657.25;;;-8.27;100.00
70302;BME280;57706;56.326;43.882;2023-11-19T00:37:31;101646.19;;;-8.23;100.00
70302;BME280;57706;56.326;43.882;2023-11-19T00:39:57;101646.19;;;-8.26;100.00
70302;BME280;57706;56.326;43.882;2023-11-19T00:42:23;101641.84;;;-8.12;100.00
70302;BME280;57706;56.326;43.882;2023-11-19T00:44:50;101637.50;;;-7.99;100.00
70302;BME280;57706;56.326;43.882;2023-11-19T00:47:16;101640.13;;;-8.07;100.00
70302;BME280;57706;56.326;43.882;2023-11-19T00:49:41;101628.13;;;-7.95;100.00
70302;BME280;57706;56.326;43.882;2023-11-19T00:52:08;101623.13;;;-8.08;100.00
70302;BME280;57706;56.326;43.882;2023-11-19T00:54:34;101621.41;;;-8.04;100.00
70302;BME280;57706;56.326;43.882;2023-11-19T00:57:00;101621.50;;;-8.21;100.00
70302;BME280;57706;56.326;43.882;2023-11-19T00:59:27;101619.84;;;-8.29;100.00
70302;BME280;57706;56.326;43.882;2023-11-19T01:01:54;101623.13;;;-8.08;100.00
70302;BME280;57706;56.326;43.882;2023-11-19T01:04:20;101625.69;;;-8.11;100.00
70302;BME280;57706;56.326;43.882;2023-11-19T01:06:47;101631.72;;;-8.21;100.00
70302;BME280;57706;56.326;43.882;2023-11-19T01:09:13;101634.03;;;-7.90;100.00
70302;BME280;57706;56.326;43.882;2023-11-19T01:11:38;101626.41;;;-7.96;100.00
70302;BME280;57706;56.326;43.882;2023-11-19T01:14:04;101620.41;;;-7.88;100.00
70302;BME280;57706;56.326;43.882;2023-11-19T01:16:30;101616.22;;;-7.96;100.00
70302;BME280;57706;56.326;43.882;2023-11-19T01:18:56;101614.69;;;-8.16;100.00
70302;BME280;57706;56.326;43.882;2023-11-19T01:21:22;101616.34;;;-8.10;100.00
70302;BME280;57706;56.326;43.882;2023-11-19T01:23:47;101622.41;;;-8.27;100.00
70302;BME280;57706;56.326;43.882;2023-11-19T01:26:13;101630.13;;;-8.38;100.00
70302;BME280;57706;56.326;43.882;2023-11-19T01:28:39;101629.28;;;-8.37;100.00
70302;BME280;57706;56.326;43.882;2023-11-19T01:31:05;101625.03;;;-8.36;100.00
70302;BME280;57706;56.326;43.882;2023-11-19T01:33:36;101623.41;;;-8.48;100.00
70302;BME280;57706;56.326;43.882;2023-11-19T01:36:01;101617.34;;;-8.30;100.00
70302;BME280;57706;56.326;43.882;2023-11-19T01:38:27;101621.63;;;-8.37;100.00
70302;BME280;57706;56.326;43.882;2023-11-19T01:40:56;101614.75;;;-8.29;100.00
70302;BME280;57706;56.326;43.882;2023-11-19T01:43:39;101623.38;;;-8.45;100.00
70302;BME280;57706;56.326;43.882;2023-11-19T01:46:08;101611.59;;;-8.62;100.00
70302;BME280;57706;56.326;43.882;2023-11-19T01:48:42;101613.34;;;-8.67;100.00
70302;BME280;57706;56.326;43.882;2023-11-19T01:51:14;101609.88;;;-8.58;100.00
70302;BME280;57706;56.326;43.882;2023-11-19T01:53:43;101611.63;;;-8.63;100.00
70302;BME280;57706;56.326;43.882;2023-11-19T01:56:09;101617.66;;;-8.81;100.00
70302;BME280;57706;56.326;43.882;2023-11-19T01:58:39;101617.69;;;-8.86;100.00
70302;BME280;57706;56.326;43.882;2023-11-19T02:01:06;101608.13;;;-8.51;100.00
70302;BME280;57706;56.326;43.882;2023-11-19T02:03:33;101618.31;;;-8.48;100.00
70302;BME280;57706;56.326;43.882;2023-11-19T02:06:00;101620.09;;;-8.60;100.00
70302;BME280;57706;56.326;43.882;2023-11-19T02:08:26;101607.41;;;-8.72;100.00
70302;BME280;57706;56.326;43.882;2023-11-19T02:10:52;101616.78;;;-8.76;100.00
70302;BME280;57706;56.326;43.882;2023-11-19T02:13:20;101616.72;;;-8.68;100.00
70302;BME280;57706;56.326;43.882;2023-11-19T02:15:46;101617.59;;;-8.69;100.00
70302;BME280;57706;56.326;43.882;2023-11-19T02:18:22;101613.38;;;-8.73;100.00
70302;BME280;57706;56.326;43.882;2023-11-19T02:20:49;101607.44;;;-8.75;100.00
70302;BME280;57706;56.326;43.882;2023-11-19T02:23:16;101615.09;;;-8.78;100.00
70302;BME280;57706;56.326;43.882;2023-11-19T02:25:43;101611.56;;;-8.55;100.00
70302;BME280;57706;56.326;43.882;2023-11-19T02:28:13;101608.25;;;-8.70;100.00
70302;BME280;57706;56.326;43.882;2023-11-19T02:30:39;101600.66;;;-8.79;100.00
70302;BME280;57706;56.326;43.882;2023-11-19T02:33:05;101606.47;;;-8.55;100.00
70302;BME280;57706;56.326;43.882;2023-11-19T02:35:31;101598.81;;;-8.55;100.00
70302;BME280;57706;56.326;43.882;2023-11-19T02:37:58;101615.09;;;-8.75;100.00
70302;BME280;57706;56.326;43.882;2023-11-19T02:40:29;101604.16;;;-9.01;100.00
70302;BME280;57706;56.326;43.882;2023-11-19T02:42:55;101604.97;;;-8.94;100.00
70302;BME280;57706;56.326;43.882;2023-11-19T02:45:25;101621.16;;;-9.03;100.00
70302;BME280;57706;56.326;43.882;2023-11-19T02:47:52;101603.28;;;-8.92;100.00
70302;BME280;57706;56.326;43.882;2023-11-19T02:50:19;101606.66;;;-8.88;100.00
70302;BME280;57706;56.326;43.882;2023-11-19T02:52:51;101612.53;;;-8.74;100.00
70302;BME280;57706;56.326;43.882;2023-11-19T02:55:17;101607.47;;;-8.83;100.00
70302;BME280;57706;56.326;43.882;2023-11-19T02:57:43;101605.72;;;-8.72;100.00
70302;BME280;57706;56.326;43.882;2023-11-19T03:00:15;101603.13;;;-8.64;100.00
70302;BME280;57706;56.326;43.882;2023-11-19T03:02:41;101599.63;;;-8.50;100.00
70302;BME280;57706;56.326;43.882;2023-11-19T03:05:14;101598.06;;;-8.70;100.00
70302;BME280;57706;56.326;43.882;2023-11-19T03:07:42;101597.19;;;-8.69;100.00
70302;BME280;57706;56.326;43.882;2023-11-19T03:10:12;101603.22;;;-8.82;100.00
70302;BME280;57706;56.326;43.882;2023-11-19T03:12:43;101598.88;;;-8.66;100.00
70302;BME280;57706;56.326;43.882;2023-11-19T03:15:09;101600.53;;;-8.58;100.00
70302;BME280;57706;56.326;43.882;2023-11-19T03:17:38;101602.31;;;-8.72;100.00
70302;BME280;57706;56.326;43.882;2023-11-19T03:20:08;101603.28;;;-8.92;100.00
70302;BME280;57706;56.326;43.882;2023-11-19T03:22:41;101602.38;;;-8.80;100.00
70302;BME280;57706;56.326;43.882;2023-11-19T03:25:10;101595.53;;;-8.73;100.00
70302;BME280;57706;56.326;43.882;2023-11-19T03:27:39;101592.94;;;-8.62;100.00
70302;BME280;57706;56.326;43.882;2023-11-19T03:30:08;101594.78;;;-8.94;100.00
70302;BME280;57706;56.326;43.882;2023-11-19T03:32:35;101606.59;;;-8.77;100.00
70302;BME280;57706;56.326;43.882;2023-11-19T03:35:04;101602.28;;;-8.67;100.00
70302;BME280;57706;56.326;43.882;2023-11-19T03:37:33;101601.50;;;-8.74;100.00
70302;BME280;57706;56.326;43.882;2023-11-19T03:39:59;101608.38;;;-8.95;100.00
70302;BME280;57706;56.326;43.882;2023-11-19T03:42:25;101614.41;;;-9.08;100.00
70302;BME280;57706;56.326;43.882;2023-11-19T03:44:52;101617.81;;;-9.23;100.00
70302;BME280;57706;56.326;43.882;2023-11-19T03:47:18;101607.66;;;-9.22;100.00
70302;BME280;57706;56.326;43.882;2023-11-19T03:49:50;101607.66;;;-9.27;100.00
70302;BME280;57706;56.326;43.882;2023-11-19T03:52:17;101611.91;;;-9.24;100.00
70302;BME280;57706;56.326;43.882;2023-11-19T03:54:44;101611.06;;;-9.34;100.00
70302;BME280;57706;56.326;43.882;2023-11-19T03:57:09;101611.91;;;-9.27;100.00
70302;BME280;57706;56.326;43.882;2023-11-19T03:59:36;101603.41;;;-9.26;100.00
70302;BME280;57706;56.326;43.882;2023-11-19T04:02:02;101615.34;;;-9.44;100.00
70302;BME280;57706;56.326;43.882;2023-11-19T04:04:28;101617.00;;;-9.36;100.00
70302;BME280;57706;56.326;43.882;2023-11-19T04:06:55;101610.22;;;-9.25;100.00
70302;BME280;57706;56.326;43.882;2023-11-19T04:09:21;101618.69;;;-9.26;100.00
70302;BME280;57706;56.326;43.882;2023-11-19T04:11:47;101624.63;;;-9.26;100.00
70302;BME280;57706;56.326;43.882;2023-11-19T04:14:13;101637.34;;;-9.15;100.00
70302;BME280;57706;56.326;43.882;2023-11-19T04:16:39;101630.53;;;-9.13;100.00
70302;BME280;57706;56.326;43.882;2023-11-19T04:19:05;101631.41;;;-9.17;100.00
70302;BME280;57706;56.326;43.882;2023-11-19T04:21:32;101628.03;;;-9.34;100.00
70302;BME280;57706;56.326;43.882;2023-11-19T04:23:58;101624.63;;;-9.22;100.00
70302;BME280;57706;56.326;43.882;2023-11-19T04:26:24;101631.41;;;-9.12;100.00
70302;BME280;57706;56.326;43.882;2023-11-19T04:28:50;101636.47;;;-9.07;100.00
70302;BME280;57706;56.326;43.882;2023-11-19T04:31:19;101638.94;;;-8.89;100.00
70302;BME280;57706;56.326;43.882;2023-11-19T04:33:45;101642.22;;;-8.68;100.00
70302;BME280;57706;56.326;43.882;2023-11-19T04:36:10;101640.75;;;-9.16;100.00
70302;BME280;57706;56.326;43.882;2023-11-19T04:38:37;101636.50;;;-9.17;100.00
70302;BME280;57706;56.326;43.882;2023-11-19T04:41:05;101628.03;;;-9.27;100.00
70302;BME280;57706;56.326;43.882;2023-11-19T04:43:31;101635.63;;;-9.19;100.00
70302;BME280;57706;56.326;43.882;2023-11-19T04:45:57;101638.22;;;-9.20;100.00
70302;BME280;57706;56.326;43.882;2023-11-19T04:48:24;101640.59;;;-8.78;100.00
70302;BME280;57706;56.326;43.882;2023-11-19T04:50:50;101628.75;;;-8.95;100.00
70302;BME280;57706;56.326;43.882;2023-11-19T04:53:19;101631.28;;;-8.90;100.00
70302;BME280;57706;56.326;43.882;2023-11-19T04:55:45;101638.09;;;-8.94;100.00
70302;BME280;57706;56.326;43.882;2023-11-19T04:58:11;101638.09;;;-8.94;100.00
70302;BME280;57706;56.326;43.882;2023-11-19T05:00:36;101645.75;;;-8.91;100.00
70302;BME280;57706;56.326;43.882;2023-11-19T05:03:02;101636.34;;;-8.79;100.00
70302;BME280;57706;56.326;43.882;2023-11-19T05:05:28;101642.31;;;-8.87;100.00
70302;BME280;57706;56.326;43.882;2023-11-19T05:07:54;101638.91;;;-8.86;100.00
70302;BME280;57706;56.326;43.882;2023-11-19T05:10:20;101640.53;;;-8.69;100.00
70302;BME280;57706;56.326;43.882;2023-11-19T05:12:46;101633.63;;;-8.51;100.00
70302;BME280;57706;56.326;43.882;2023-11-19T05:15:12;101649.91;;;-8.71;100.00
70302;BME280;57706;56.326;43.882;2023-11-19T05:17:38;101652.41;;;-8.68;100.00
70302;BME280;57706;56.326;43.882;2023-11-19T05:20:05;101651.44;;;-8.45;100.00
70302;BME280;57706;56.326;43.882;2023-11-19T05:22:41;101654.91;;;-8.51;100.00
70302;BME280;57706;56.326;43.882;2023-11-19T05:25:08;101662.56;;;-8.57;100.00
70302;BME280;57706;56.326;43.882;2023-11-19T05:27:37;101680.50;;;-8.71;100.00
70302;BME280;57706;56.326;43.882;2023-11-19T05:30:05;101682.94;;;-8.52;100.00
70302;BME280;57706;56.326;43.882;2023-11-19T05:32:36;101678.72;;;-8.57;100.00
70302;BME280;57706;56.326;43.882;2023-11-19T05:35:02;101676.94;;;-8.45;100.00
70302;BME280;57706;56.326;43.882;2023-11-19T05:37:28;101684.72;;;-8.67;100.00
70302;BME280;57706;56.326;43.882;2023-11-19T05:39:54;101687.94;;;-8.37;100.00
70302;BME280;57706;56.326;43.882;2023-11-19T05:42:20;101682.84;;;-8.34;100.00
70302;BME280;57706;56.326;43.882;2023-11-19T05:44:45;101684.56;;;-8.45;100.00
70302;BME280;57706;56.326;43.882;2023-11-19T05:47:11;101684.53;;;-8.33;100.00
70302;BME280;57706;56.326;43.882;2023-11-19T05:49:37;101683.63;;;-8.29;100.00
70302;BME280;57706;56.326;43.882;2023-11-19T05:52:04;101691.22;;;-8.19;100.00
70302;BME280;57706;56.326;43.882;2023-11-19T05:54:33;101680.22;;;-8.26;100.00
70302;BME280;57706;56.326;43.882;2023-11-19T05:57:06;101687.72;;;-8.03;100.00
70302;BME280;57706;56.326;43.882;2023-11-19T05:59:35;101687.69;;;-7.96;100.00
70302;BME280;57706;56.326;43.882;2023-11-19T06:02:02;101679.22;;;-8.05;100.00
70302;BME280;57706;56.326;43.882;2023-11-19T06:04:28;101673.22;;;-7.96;100.00
70302;BME280;57706;56.326;43.882;2023-11-19T06:06:54;101672.31;;;-7.90;100.00
70302;BME280;57706;56.326;43.882;2023-11-19T06:09:21;101675.44;;;-7.57;100.00
70302;BME280;57706;56.326;43.882;2023-11-19T06:11:49;101685.41;;;-7.29;100.00
70302;BME280;57706;56.326;43.882;2023-11-19T06:14:16;101673.38;;;-7.21;100.00
70302;BME280;57706;56.326;43.882;2023-11-19T06:16:42;101673.38;;;-7.21;100.00
70302;BME280;57706;56.326;43.882;2023-11-19T06:19:08;101675.06;;;-7.16;100.00
70302;BME280;57706;56.326;43.882;2023-11-19T06:21:33;101663.81;;;-7.03;100.00
70302;BME280;57706;56.326;43.882;2023-11-19T06:24:01;101667.41;;;-7.16;100.00
70302;BME280;57706;56.326;43.882;2023-11-19T06:26:26;101662.38;;;-7.26;100.00
70302;BME280;57706;56.326;43.882;2023-11-19T06:28:52;101667.34;;;-7.12;100.00
70302;BME280;57706;56.326;43.882;2023-11-19T06:31:18;101664.47;;;-6.85;100.00
70302;BME280;57706;56.326;43.882;2023-11-19T06:33:44;101660.59;;;-7.17;100.00
70302;BME280;57706;56.326;43.882;2023-11-19T06:36:10;101667.28;;;-7.09;100.00
70302;BME280;57706;56.326;43.882;2023-11-19T06:38:35;101664.56;;;-6.92;100.00
70302;BME280;57706;56.326;43.882;2023-11-19T06:41:01;101666.09;;;-6.78;100.00
70302;BME280;57706;56.326;43.882;2023-11-19T06:43:27;101673.16;;;-6.99;100.00
70302;BME280;57706;56.326;43.882;2023-11-19T06:45:56;101675.34;;;-6.68;100.00
70302;BME280;57706;56.326;43.882;2023-11-19T06:48:22;101681.16;;;-6.56;98.20
70302;BME280;57706;56.326;43.882;2023-11-19T06:50:47;101672.63;;;-6.55;96.68
70302;BME280;57706;56.326;43.882;2023-11-19T06:53:13;101658.03;;;-6.48;96.73
70302;BME280;57706;56.326;43.882;2023-11-19T06:55:39;101667.44;;;-6.49;95.10
70302;BME280;57706;56.326;43.882;2023-11-19T06:58:05;101671.06;;;-6.66;95.32
70302;BME280;57706;56.326;43.882;2023-11-19T07:00:31;101664.66;;;-6.35;95.38
70302;BME280;57706;56.326;43.882;2023-11-19T07:02:59;101666.84;;;-6.09;92.50
70302;BME280;57706;56.326;43.882;2023-11-19T07:05:25;101677.22;;;-6.18;91.19
70302;BME280;57706;56.326;43.882;2023-11-19T07:07:51;101676.44;;;-6.22;90.26
70302;BME280;57706;56.326;43.882;2023-11-19T07:10:17;101674.19;;;-6.45;91.66
70302;BME280;57706;56.326;43.882;2023-11-19T07:12:42;101678.13;;;-6.20;92.16
70302;BME280;57706;56.326;43.882;2023-11-19T07:15:08;101672.13;;;-6.18;90.60
70302;BME280;57706;56.326;43.882;2023-11-19T07:17:34;101673.03;;;-6.24;89.12
70302;BME280;57706;56.326;43.882;2023-11-19T07:20:00;101671.13;;;-6.09;90.99
70302;BME280;57706;56.326;43.882;2023-11-19T07:22:26;101683.91;;;-6.07;90.18
70302;BME280;57706;56.326;43.882;2023-11-19T07:24:52;101681.34;;;-6.07;89.88
70302;BME280;57706;56.326;43.882;2023-11-19T07:27:19;101691.66;;;-6.14;90.45
70302;BME280;57706;56.326;43.882;2023-11-19T07:29:44;101686.94;;;-5.87;92.46
70302;BME280;57706;56.326;43.882;2023-11-19T07:32:11;101691.91;;;-5.77;90.01
70302;BME280;57706;56.326;43.882;2023-11-19T07:34:36;101691.00;;;-6.28;88.72
70302;BME280;57706;56.326;43.882;2023-11-19T07:37:02;101688.84;;;-6.58;90.41
70302;BME280;57706;56.326;43.882;2023-11-19T07:39:29;101678.44;;;-6.44;91.28
70302;BME280;57706;56.326;43.882;2023-11-19T07:41:54;101677.19;;;-6.15;93.32
70302;BME280;57706;56.326;43.882;2023-11-19T07:44:20;101670.97;;;-6.01;92.67
70302;BME280;57706;56.326;43.882;2023-11-19T07:46:47;101666.59;;;-5.93;91.29
70302;BME280;57706;56.326;43.882;2023-11-19T07:49:13;101671.75;;;-5.96;90.94
70302;BME280;57706;56.326;43.882;2023-11-19T07:51:40;101663.66;;;-5.71;89.88
70302;BME280;57706;56.326;43.882;2023-11-19T07:54:06;101673.44;;;-5.43;87.27
70302;BME280;57706;56.326;43.882;2023-11-19T07:56:32;101670.44;;;-6.22;88.67
70302;BME280;57706;56.326;43.882;2023-11-19T07:58:59;101663.81;;;-5.81;88.84
70302;BME280;57706;56.326;43.882;2023-11-19T08:01:25;101663.81;;;-5.32;83.94
70302;BME280;57706;56.326;43.882;2023-11-19T08:03:51;101651.28;;;-5.46;84.49
70302;BME280;57706;56.326;43.882;2023-11-19T08:06:16;101649.16;;;-5.25;83.91
70302;BME280;57706;56.326;43.882;2023-11-19T08:08:42;101649.72;;;-5.09;82.54
70302;BME280;57706;56.326;43.882;2023-11-19T08:11:08;101641.59;;;-4.87;80.90
70302;BME280;57706;56.326;43.882;2023-11-19T08:13:34;101633.31;;;-4.59;80.97
70302;BME280;57706;56.326;43.882;2023-11-19T08:15:59;101633.75;;;-4.40;78.22
70302;BME280;57706;56.326;43.882;2023-11-19T08:18:25;101624.88;;;-4.26;76.19
70302;BME280;57706;56.326;43.882;2023-11-19T08:20:50;101634.66;;;-4.43;74.64
70302;BME280;57706;56.326;43.882;2023-11-19T08:23:21;101625.28;;;-4.85;76.88
70302;BME280;57706;56.326;43.882;2023-11-19T08:25:49;101618.53;;;-4.49;75.50
70302;BME280;57706;56.326;43.882;2023-11-19T08:28:15;101625.06;;;-4.74;78.18
70302;BME280;57706;56.326;43.882;2023-11-19T08:30:40;101621.28;;;-4.57;78.37
70302;BME280;57706;56.326;43.882;2023-11-19T08:33:06;101621.78;;;-4.80;76.59
70302;BME280;57706;56.326;43.882;2023-11-19T08:35:32;101623.75;;;-4.52;77.02
70302;BME280;57706;56.326;43.882;2023-11-19T08:37:58;101620.72;;;-4.32;74.99
70302;BME280;57706;56.326;43.882;2023-11-19T08:40:24;101623.38;;;-4.35;73.72
70302;BME280;57706;56.326;43.882;2023-11-19T08:42:53;101618.97;;;-4.30;73.97
70302;BME280;57706;56.326;43.882;2023-11-19T08:45:19;101607.63;;;-3.87;73.40
70302;BME280;57706;56.326;43.882;2023-11-19T08:47:44;101611.31;;;-3.62;72.25
70302;BME280;57706;56.326;43.882;2023-11-19T08:50:11;101613.81;;;-3.27;69.51
70302;BME280;57706;56.326;43.882;2023-11-19T08:52:37;101623.78;;;-3.48;67.79
70302;BME280;57706;56.326;43.882;2023-11-19T08:55:04;101613.13;;;-4.01;68.34
70302;BME280;57706;56.326;43.882;2023-11-19T08:57:34;101609.31;;;-4.20;70.76
70302;BME280;57706;56.326;43.882;2023-11-19T08:59:59;101618.69;;;-4.18;71.71
70302;BME280;57706;56.326;43.882;2023-11-19T09:02:25;101612.00;;;-4.25;72.79
70302;BME280;57706;56.326;43.882;2023-11-19T09:04:51;101608.53;;;-4.22;74.14
70302;BME280;57706;56.326;43.882;2023-11-19T09:07:17;101610.31;;;-4.26;73.64
70302;BME280;57706;56.326;43.882;2023-11-19T09:09:42;101611.31;;;-4.32;73.99
70302;BME280;57706;56.326;43.882;2023-11-19T09:12:08;101604.00;;;-4.49;73.55
70302;BME280;57706;56.326;43.882;2023-11-19T09:14:34;101612.75;;;-4.97;77.13
70302;BME280;57706;56.326;43.882;2023-11-19T09:17:00;101611.16;;;-4.63;77.95
70302;BME280;57706;56.326;43.882;2023-11-19T09:19:25;101613.38;;;-4.48;75.70
70302;BME280;57706;56.326;43.882;2023-11-19T09:21:52;101607.56;;;-4.18;74.81
70302;BME280;57706;56.326;43.882;2023-11-19T09:24:18;101603.41;;;-4.24;73.15
70302;BME280;57706;56.326;43.882;2023-11-19T09:26:44;101598.41;;;-3.94;73.45
70302;BME280;57706;56.326;43.882;2023-11-19T09:29:10;101599.97;;;-3.88;71.81
70302;BME280;57706;56.326;43.882;2023-11-19T09:31:40;101610.63;;;-3.69;70.64
70302;BME280;57706;56.326;43.882;2023-11-19T09:34:06;101601.44;;;-3.78;68.97
70302;BME280;57706;56.326;43.882;2023-11-19T09:36:31;101605.66;;;-3.75;70.85
70302;BME280;57706;56.326;43.882;2023-11-19T09:38:57;101595.22;;;-3.69;70.62
70302;BME280;57706;56.326;43.882;2023-11-19T09:41:25;101590.50;;;-3.53;70.01
70302;BME280;57706;56.326;43.882;2023-11-19T09:43:53;101593.25;;;-3.27;69.96
70302;BME280;57706;56.326;43.882;2023-11-19T09:46:19;101597.31;;;-3.20;68.36
70302;BME280;57706;56.326;43.882;2023-11-19T09:48:45;101602.81;;;-3.33;67.24
70302;BME280;57706;56.326;43.882;2023-11-19T09:51:11;101606.44;;;-3.73;67.52
70302;BME280;57706;56.326;43.882;2023-11-19T09:53:37;101610.28;;;-3.55;69.07
70302;BME280;57706;56.326;43.882;2023-11-19T09:56:06;101595.41;;;-4.11;68.66
70302;BME280;57706;56.326;43.882;2023-11-19T09:58:33;101597.53;;;-3.93;70.82
70302;BME280;57706;56.326;43.882;2023-11-19T10:01:00;101599.75;;;-4.13;70.07
70302;BME280;57706;56.326;43.882;2023-11-19T10:03:34;101593.44;;;-4.36;70.78
70302;BME280;57706;56.326;43.882;2023-11-19T10:06:06;101588.91;;;-4.25;72.28
70302;BME280;57706;56.326;43.882;2023-11-19T10:08:33;101598.22;;;-3.53;71.46
70302;BME280;57706;56.326;43.882;2023-11-19T10:10:59;101589.56;;;-3.50;68.50
70302;BME280;57706;56.326;43.882;2023-11-19T10:13:28;101593.16;;;-3.24;67.05
70302;BME280;57706;56.326;43.882;2023-11-19T10:15:57;101585.03;;;-2.80;64.98
70302;BME280;57706;56.326;43.882;2023-11-19T10:18:26;101586.28;;;-2.38;62.35
70302;BME280;57706;56.326;43.882;2023-11-19T10:20:52;101578.66;;;-2.14;61.56
70302;BME280;57706;56.326;43.882;2023-11-19T10:23:19;101588.41;;;-1.22;58.16
70302;BME280;57706;56.326;43.882;2023-11-19T10:25:45;101586.75;;;-1.23;55.27
70302;BME280;57706;56.326;43.882;2023-11-19T10:28:10;101587.75;;;-1.77;56.25
70302;BME280;57706;56.326;43.882;2023-11-19T10:30:36;101590.22;;;-1.74;57.68
70302;BME280;57706;56.326;43.882;2023-11-19T10:33:05;101597.38;;;-0.63;54.97
70302;BME280;57706;56.326;43.882;2023-11-19T10:35:51;101596.88;;;-0.95;54.04
70302;BME280;57706;56.326;43.882;2023-11-19T10:38:20;101593.94;;;-2.08;56.73
70302;BME280;57706;56.326;43.882;2023-11-19T10:40:49;101607.53;;;-3.49;60.42
70302;BME280;57706;56.326;43.882;2023-11-19T10:43:17;101594.25;;;-3.65;63.02
70302;BME280;57706;56.326;43.882;2023-11-19T10:45:43;101589.25;;;-3.71;64.64
70302;BME280;57706;56.326;43.882;2023-11-19T10:48:09;101600.13;;;-3.60;65.32
70302;BME280;57706;56.326;43.882;2023-11-19T10:50:36;101605.00;;;-3.50;65.21
70302;BME280;57706;56.326;43.882;2023-11-19T10:53:03;101595.53;;;-3.81;65.51
70302;BME280;57706;56.326;43.882;2023-11-19T10:55:34;101595.22;;;-4.04;67.54
70302;BME280;57706;56.326;43.882;2023-11-19T10:58:07;101594.75;;;-4.58;70.88
70302;BME280;57706;56.326;43.882;2023-11-19T11:03:39;101600.75;;;-4.57;70.09
70302;BME280;57706;56.326;43.882;2023-11-19T11:06:05;101600.41;;;-4.05;71.75
70302;BME280;57706;56.326;43.882;2023-11-19T11:08:34;101601.06;;;-3.64;68.63
70302;BME280;57706;56.326;43.882;2023-11-19T11:11:01;101603.66;;;-2.43;65.80
70302;BME280;57706;56.326;43.882;2023-11-19T11:13:31;101602.28;;;-0.57;59.10
70302;BME280;57706;56.326;43.882;2023-11-19T11:15:58;101593.41;;;-0.72;54.66
70302;BME280;57706;56.326;43.882;2023-11-19T11:18:24;101588.78;;;-2.08;56.42
70302;BME280;57706;56.326;43.882;2023-11-19T11:21:03;101589.72;;;-2.65;58.67
70302;BME280;57706;56.326;43.882;2023-11-19T11:26:25;101602.88;;;-3.67;63.61
70302;BME280;57706;56.326;43.882;2023-11-19T11:29:26;101589.13;;;-3.66;64.93
70302;BME280;57706;56.326;43.882;2023-11-19T11:34:48;101595.75;;;-3.91;66.62
70302;BME280;57706;56.326;43.882;2023-11-19T11:37:42;101590.72;;;-3.94;67.11
70302;BME280;57706;56.326;43.882;2023-11-19T11:40:16;101586.38;;;-4.28;66.19
70302;BME280;57706;56.326;43.882;2023-11-19T11:42:44;101597.44;;;-4.62;67.38
70302;BME280;57706;56.326;43.882;2023-11-19T11:45:11;101594.75;;;-4.58;67.90
70302;BME280;57706;56.326;43.882;2023-11-19T11:50:14;101591.22;;;-4.90;68.19
70302;BME280;57706;56.326;43.882;2023-11-19T11:55:34;101609.06;;;-5.28;70.57
70302;BME280;57706;56.326;43.882;2023-11-19T11:58:00;101596.13;;;-5.67;73.85
70302;BME280;57706;56.326;43.882;2023-11-19T12:00:30;101597.28;;;-5.84;75.93
70302;BME280;57706;56.326;43.882;2023-11-19T12:02:59;101599.84;;;-5.84;77.03
70302;BME280;57706;56.326;43.882;2023-11-19T12:05:25;101591.81;;;-5.65;77.21
70302;BME280;57706;56.326;43.882;2023-11-19T12:08:02;101601.44;;;-5.76;76.93
70302;BME280;57706;56.326;43.882;2023-11-19T12:10:31;101607.66;;;-5.91;78.56
70302;BME280;57706;56.326;43.882;2023-11-19T12:13:01;101604.16;;;-5.87;78.93
70302;BME280;57706;56.326;43.882;2023-11-19T12:15:27;101613.03;;;-6.07;81.21
70302;BME280;57706;56.326;43.882;2023-11-19T12:17:54;101609.59;;;-6.04;81.65
70302;BME280;57706;56.326;43.882;2023-11-19T12:20:22;101607.72;;;-5.96;83.03
70302;BME280;57706;56.326;43.882;2023-11-19T12:22:49;101606.59;;;-5.80;83.26
70302;BME280;57706;56.326;43.882;2023-11-19T12:25:17;101596.97;;;-5.67;82.08
70302;BME280;57706;56.326;43.882;2023-11-19T12:27:46;101603.13;;;-5.75;82.73
70302;BME280;57706;56.326;43.882;2023-11-19T12:30:12;101608.75;;;-5.56;80.73
70302;BME280;57706;56.326;43.882;2023-11-19T12:32:42;101611.44;;;-5.64;80.54
70302;BME280;57706;56.326;43.882;2023-11-19T12:35:09;101607.97;;;-5.60;79.58
70302;BME280;57706;56.326;43.882;2023-11-19T12:37:45;101607.03;;;-6.04;82.76
70302;BME280;57706;56.326;43.882;2023-11-19T12:40:15;101599.25;;;-6.00;82.67
70302;BME280;57706;56.326;43.882;2023-11-19T12:42:52;101606.66;;;-5.84;82.18
70302;BME280;57706;56.326;43.882;2023-11-19T12:45:19;101604.25;;;-5.92;81.72
70302;BME280;57706;56.326;43.882;2023-11-19T12:47:46;101596.88;;;-6.09;83.11
70302;BME280;57706;56.326;43.882;2023-11-19T12:50:13;101590.69;;;-5.97;83.72